sensor_id;sensor_type;location;lat;lon;timestamp;P1;durP1;ratioP1;P2;durP2;ratioP2
76155;SDS011;64906;51.290;7.348;2024-02-04T09:22:45;11.27;;;6.47;;
76155;SDS011;64906;51.290;7.348;2024-02-04T09:26:00;12.57;;;6.40;;
76155;SDS011;64906;51.290;7.348;2024-02-04T09:28:31;11.73;;;6.53;;
76155;SDS011;64906;51.290;7.348;2024-02-04T09:30:59;11.90;;;6.25;;
76155;SDS011;64906;51.290;7.348;2024-02-04T09:33:42;13.55;;;7.38;;
76155;SDS011;64906;51.290;7.348;2024-02-04T09:36:08;11.63;;;6.55;;
76155;SDS011;64906;51.290;7.348;2024-02-04T09:38:50;11.32;;;6.32;;
76155;SDS011;64906;51.290;7.348;2024-02-04T09:41:20;11.48;;;6.50;;
76155;SDS011;64906;51.290;7.348;2024-02-04T09:44:22;12.15;;;6.82;;
76155;SDS011;64906;51.290;7.348;2024-02-04T09:46:52;12.90;;;6.95;;
76155;SDS011;64906;51.290;7.348;2024-02-04T09:49:31;12.75;;;6.68;;
76155;SDS011;64906;51.290;7.348;2024-02-04T09:52:07;11.38;;;6.47;;
76155;SDS011;64906;51.290;7.348;2024-02-04T09:54:58;11.60;;;6.50;;
76155;SDS011;64906;51.290;7.348;2024-02-04T09:57:34;11.35;;;5.70;;
76155;SDS011;64906;51.290;7.348;2024-02-04T10:00:11;9.38;;;5.75;;
76155;SDS011;64906;51.290;7.348;2024-02-04T10:02:43;11.52;;;6.70;;
76155;SDS011;64906;51.290;7.348;2024-02-04T10:05:10;11.40;;;6.25;;
76155;SDS011;64906;51.290;7.348;2024-02-04T10:07:37;11.93;;;6.60;;
76155;SDS011;64906;51.290;7.348;2024-02-04T10:10:06;11.05;;;6.35;;
76155;SDS011;64906;51.290;7.348;2024-02-04T10:12:38;13.00;;;6.43;;
76155;SDS011;64906;51.290;7.348;2024-02-04T10:15:10;11.32;;;6.25;;
76155;SDS011;64906;51.290;7.348;2024-02-04T10:17:41;10.38;;;6.22;;
76155;SDS011;64906;51.290;7.348;2024-02-04T10:20:10;12.43;;;7.10;;
76155;SDS011;64906;51.290;7.348;2024-02-04T10:22:37;10.77;;;5.85;;
76155;SDS011;64906;51.290;7.348;2024-02-04T10:25:14;11.75;;;6.55;;
76155;SDS011;64906;51.290;7.348;2024-02-04T10:27:41;9.75;;;5.28;;
76155;SDS011;64906;51.290;7.348;2024-02-04T10:30:07;10.13;;;5.85;;
76155;SDS011;64906;51.290;7.348;2024-02-04T10:32:37;11.23;;;6.10;;
76155;SDS011;64906;51.290;7.348;2024-02-04T10:40:27;10.88;;;5.78;;
76155;SDS011;64906;51.290;7.348;2024-02-04T10:42:56;10.30;;;6.03;;
76155;SDS011;64906;51.290;7.348;2024-02-04T10:45:30;9.32;;;5.82;;
76155;SDS011;64906;51.290;7.348;2024-02-04T10:48:05;9.02;;;5.32;;
76155;SDS011;64906;51.290;7.348;2024-02-04T10:50:55;10.48;;;5.90;;
76155;SDS011;64906;51.290;7.348;2024-02-04T10:53:53;10.07;;;5.57;;
76155;SDS011;64906;51.290;7.348;2024-02-04T10:56:50;10.88;;;6.07;;
76155;SDS011;64906;51.290;7.348;2024-02-04T10:59:22;10.43;;;5.85;;
76155;SDS011;64906;51.290;7.348;2024-02-04T11:01:50;10.80;;;6.10;;
76155;SDS011;64906;51.290;7.348;2024-02-04T11:04:17;11.15;;;5.85;;
76155;SDS011;64906;51.290;7.348;2024-02-04T11:07:12;10.68;;;5.30;;
76155;SDS011;64906;51.290;7.348;2024-02-04T11:09:50;10.15;;;5.70;;
76155;SDS011;64906;51.290;7.348;2024-02-04T11:12:18;9.32;;;5.55;;
76155;SDS011;64906;51.290;7.348;2024-02-04T11:14:46;11.35;;;6.00;;
76155;SDS011;64906;51.290;7.348;2024-02-04T11:26:52;9.75;;;5.72;;
76155;SDS011;64906;51.290;7.348;2024-02-04T11:29:20;11.18;;;6.13;;
76155;SDS011;64906;51.290;7.348;2024-02-04T11:31:49;10.02;;;5.93;;
76155;SDS011;64906;51.290;7.348;2024-02-04T11:34:38;10.63;;;6.13;;
76155;SDS011;64906;51.290;7.348;2024-02-04T11:37:18;9.50;;;5.53;;
76155;SDS011;64906;51.290;7.348;2024-02-04T11:40:33;12.30;;;6.43;;
76155;SDS011;64906;51.290;7.348;2024-02-04T11:43:05;11.00;;;6.03;;
76155;SDS011;64906;51.290;7.348;2024-02-04T11:45:30;10.40;;;5.85;;
76155;SDS011;64906;51.290;7.348;2024-02-04T11:48:06;12.48;;;7.00;;
76155;SDS011;64906;51.290;7.348;2024-02-04T11:50:39;11.13;;;6.05;;
76155;SDS011;64906;51.290;7.348;2024-02-04T11:56:41;11.35;;;6.43;;
76155;SDS011;64906;51.290;7.348;2024-02-04T11:59:20;9.98;;;6.05;;
76155;SDS011;64906;51.290;7.348;2024-02-04T12:02:04;10.43;;;6.05;;
76155;SDS011;64906;51.290;7.348;2024-02-04T12:04:44;10.73;;;5.97;;
76155;SDS011;64906;51.290;7.348;2024-02-04T12:07:11;10.68;;;5.85;;
76155;SDS011;64906;51.290;7.348;2024-02-04T12:09:42;10.68;;;5.90;;
76155;SDS011;64906;51.290;7.348;2024-02-04T12:12:18;10.95;;;6.47;;
76155;SDS011;64906;51.290;7.348;2024-02-04T12:14:51;10.18;;;5.63;;
76155;SDS011;64906;51.290;7.348;2024-02-04T12:17:32;10.63;;;5.63;;
76155;SDS011;64906;51.290;7.348;2024-02-04T12:20:08;11.35;;;6.07;;
76155;SDS011;64906;51.290;7.348;2024-02-04T12:22:36;10.80;;;6.25;;
76155;SDS011;64906;51.290;7.348;2024-02-04T12:25:02;10.38;;;6.28;;
76155;SDS011;64906;51.290;7.348;2024-02-04T12:27:29;11.65;;;6.43;;
76155;SDS011;64906;51.290;7.348;2024-02-04T12:29:55;11.23;;;6.40;;
76155;SDS011;64906;51.290;7.348;2024-02-04T12:32:25;11.25;;;6.00;;
76155;SDS011;64906;51.290;7.348;2024-02-04T12:35:02;11.20;;;5.80;;
76155;SDS011;64906;51.290;7.348;2024-02-04T12:37:27;11.18;;;5.97;;
76155;SDS011;64906;51.290;7.348;2024-02-04T12:39:59;12.05;;;6.18;;
76155;SDS011;64906;51.290;7.348;2024-02-04T12:42:36;11.10;;;6.38;;
76155;SDS011;64906;51.290;7.348;2024-02-04T12:45:02;11.10;;;5.65;;
76155;SDS011;64906;51.290;7.348;2024-02-04T12:47:28;19.23;;;10.10;;
76155;SDS011;64906;51.290;7.348;2024-02-04T12:49:57;23.08;;;10.73;;
76155;SDS011;64906;51.290;7.348;2024-02-04T12:52:23;26.02;;;12.80;;
76155;SDS011;64906;51.290;7.348;2024-02-04T12:58:12;31.67;;;14.45;;
76155;SDS011;64906;51.290;7.348;2024-02-04T13:00:42;31.65;;;14.27;;
76155;SDS011;64906;51.290;7.348;2024-02-04T13:03:08;36.08;;;13.75;;
76155;SDS011;64906;51.290;7.348;2024-02-04T13:05:34;28.73;;;14.88;;
76155;SDS011;64906;51.290;7.348;2024-02-04T13:08:01;30.05;;;14.90;;
76155;SDS011;64906;51.290;7.348;2024-02-04T13:10:29;31.60;;;14.55;;
76155;SDS011;64906;51.290;7.348;2024-02-04T13:15:28;31.45;;;15.13;;
76155;SDS011;64906;51.290;7.348;2024-02-04T13:17:57;31.95;;;15.00;;
76155;SDS011;64906;51.290;7.348;2024-02-04T13:20:22;28.10;;;15.15;;
76155;SDS011;64906;51.290;7.348;2024-02-04T13:22:48;30.15;;;15.73;;
76155;SDS011;64906;51.290;7.348;2024-02-04T13:25:14;29.33;;;14.82;;
76155;SDS011;64906;51.290;7.348;2024-02-04T13:27:41;31.77;;;15.10;;
76155;SDS011;64906;51.290;7.348;2024-02-04T13:30:07;31.33;;;15.30;;
76155;SDS011;64906;51.290;7.348;2024-02-04T13:32:43;32.25;;;15.98;;
76155;SDS011;64906;51.290;7.348;2024-02-04T13:37:37;29.55;;;15.50;;
76155;SDS011;64906;51.290;7.348;2024-02-04T13:40:06;30.65;;;15.68;;
76155;SDS011;64906;51.290;7.348;2024-02-04T13:42:33;30.20;;;15.10;;
76155;SDS011;64906;51.290;7.348;2024-02-04T13:45:01;30.77;;;15.73;;
76155;SDS011;64906;51.290;7.348;2024-02-04T13:47:28;29.55;;;15.10;;
76155;SDS011;64906;51.290;7.348;2024-02-04T13:49:54;30.10;;;14.88;;
76155;SDS011;64906;51.290;7.348;2024-02-04T13:52:19;27.75;;;14.85;;
76155;SDS011;64906;51.290;7.348;2024-02-04T13:54:45;30.27;;;15.77;;
76155;SDS011;64906;51.290;7.348;2024-02-04T13:57:11;29.15;;;15.75;;
76155;SDS011;64906;51.290;7.348;2024-02-04T13:59:37;32.90;;;16.23;;
76155;SDS011;64906;51.290;7.348;2024-02-04T14:02:02;32.00;;;16.45;;
76155;SDS011;64906;51.290;7.348;2024-02-04T14:04:29;29.85;;;15.57;;
76155;SDS011;64906;51.290;7.348;2024-02-04T14:06:55;30.80;;;15.82;;
76155;SDS011;64906;51.290;7.348;2024-02-04T14:09:20;28.65;;;14.30;;
76155;SDS011;64906;51.290;7.348;2024-02-04T14:11:46;30.67;;;16.98;;
76155;SDS011;64906;51.290;7.348;2024-02-04T14:14:12;28.25;;;14.68;;
76155;SDS011;64906;51.290;7.348;2024-02-04T14:16:38;28.25;;;15.88;;
76155;SDS011;64906;51.290;7.348;2024-02-04T14:19:04;31.25;;;16.48;;
76155;SDS011;64906;51.290;7.348;2024-02-04T14:21:30;31.92;;;16.95;;
76155;SDS011;64906;51.290;7.348;2024-02-04T14:24:00;31.85;;;16.77;;
76155;SDS011;64906;51.290;7.348;2024-02-04T14:26:26;31.98;;;15.95;;
76155;SDS011;64906;51.290;7.348;2024-02-04T14:28:52;30.73;;;16.42;;
76155;SDS011;64906;51.290;7.348;2024-02-04T14:31:17;29.30;;;16.30;;
76155;SDS011;64906;51.290;7.348;2024-02-04T14:33:44;30.63;;;16.25;;
76155;SDS011;64906;51.290;7.348;2024-02-04T14:36:09;30.35;;;16.13;;
76155;SDS011;64906;51.290;7.348;2024-02-04T14:38:35;29.92;;;15.65;;
76155;SDS011;64906;51.290;7.348;2024-02-04T14:41:06;30.70;;;16.35;;
76155;SDS011;64906;51.290;7.348;2024-02-04T14:43:31;30.48;;;15.98;;
76155;SDS011;64906;51.290;7.348;2024-02-04T14:45:58;32.65;;;17.63;;
76155;SDS011;64906;51.290;7.348;2024-02-04T14:48:23;35.20;;;18.10;;
76155;SDS011;64906;51.290;7.348;2024-02-04T14:50:49;32.50;;;17.50;;
76155;SDS011;64906;51.290;7.348;2024-02-04T14:53:24;30.98;;;16.95;;
76155;SDS011;64906;51.290;7.348;2024-02-04T14:55:54;32.28;;;17.63;;
76155;SDS011;64906;51.290;7.348;2024-02-04T14:58:22;34.35;;;18.13;;
76155;SDS011;64906;51.290;7.348;2024-02-04T15:00:49;32.13;;;17.88;;
76155;SDS011;64906;51.290;7.348;2024-02-04T15:06:26;32.53;;;17.08;;
76155;SDS011;64906;51.290;7.348;2024-02-04T15:12:28;35.72;;;17.77;;
76155;SDS011;64906;51.290;7.348;2024-02-04T15:15:04;30.77;;;16.98;;
76155;SDS011;64906;51.290;7.348;2024-02-04T15:17:31;32.42;;;17.55;;
76155;SDS011;64906;51.290;7.348;2024-02-04T15:20:02;32.10;;;17.25;;
76155;SDS011;64906;51.290;7.348;2024-02-04T15:22:38;35.47;;;17.58;;
76155;SDS011;64906;51.290;7.348;2024-02-04T15:28:51;32.78;;;17.63;;
76155;SDS011;64906;51.290;7.348;2024-02-04T15:31:18;33.22;;;17.67;;
76155;SDS011;64906;51.290;7.348;2024-02-04T15:33:45;35.65;;;17.95;;
76155;SDS011;64906;51.290;7.348;2024-02-04T15:36:12;32.55;;;16.40;;
76155;SDS011;64906;51.290;7.348;2024-02-04T15:38:37;34.63;;;18.42;;
76155;SDS011;64906;51.290;7.348;2024-02-04T15:41:07;31.35;;;17.40;;
76155;SDS011;64906;51.290;7.348;2024-02-04T15:43:34;37.92;;;18.30;;
76155;SDS011;64906;51.290;7.348;2024-02-04T15:48:32;32.28;;;17.17;;
76155;SDS011;64906;51.290;7.348;2024-02-04T15:51:05;32.60;;;17.38;;
76155;SDS011;64906;51.290;7.348;2024-02-04T15:53:31;34.08;;;17.75;;
76155;SDS011;64906;51.290;7.348;2024-02-04T15:55:59;32.70;;;17.85;;
76155;SDS011;64906;51.290;7.348;2024-02-04T15:58:30;33.22;;;17.83;;
76155;SDS011;64906;51.290;7.348;2024-02-04T16:01:00;34.08;;;19.10;;
76155;SDS011;64906;51.290;7.348;2024-02-04T16:03:31;34.03;;;18.08;;
76155;SDS011;64906;51.290;7.348;2024-02-04T16:05:57;34.17;;;18.40;;
76155;SDS011;64906;51.290;7.348;2024-02-04T16:08:23;32.55;;;17.27;;
76155;SDS011;64906;51.290;7.348;2024-02-04T16:10:49;34.70;;;18.48;;
76155;SDS011;64906;51.290;7.348;2024-02-04T16:13:20;32.25;;;17.67;;
76155;SDS011;64906;51.290;7.348;2024-02-04T16:15:50;30.35;;;17.33;;
76155;SDS011;64906;51.290;7.348;2024-02-04T16:18:19;32.97;;;17.75;;
76155;SDS011;64906;51.290;7.348;2024-02-04T16:20:45;33.90;;;17.63;;
76155;SDS011;64906;51.290;7.348;2024-02-04T16:23:10;31.63;;;17.95;;
76155;SDS011;64906;51.290;7.348;2024-02-04T16:25:36;32.83;;;17.77;;
76155;SDS011;64906;51.290;7.348;2024-02-04T16:28:02;32.05;;;17.85;;
76155;SDS011;64906;51.290;7.348;2024-02-04T16:30:27;35.15;;;18.15;;
76155;SDS011;64906;51.290;7.348;2024-02-04T16:32:53;32.95;;;18.05;;
76155;SDS011;64906;51.290;7.348;2024-02-04T16:35:18;33.47;;;17.95;;
76155;SDS011;64906;51.290;7.348;2024-02-04T16:37:48;33.78;;;18.50;;
76155;SDS011;64906;51.290;7.348;2024-02-04T16:40:14;30.20;;;17.00;;
76155;SDS011;64906;51.290;7.348;2024-02-04T16:42:40;33.45;;;18.23;;
76155;SDS011;64906;51.290;7.348;2024-02-04T16:45:06;36.15;;;18.02;;
76155;SDS011;64906;51.290;7.348;2024-02-04T16:47:32;36.08;;;18.15;;
76155;SDS011;64906;51.290;7.348;2024-02-04T16:49:58;34.17;;;17.58;;
76155;SDS011;64906;51.290;7.348;2024-02-04T16:52:24;33.10;;;17.33;;
76155;SDS011;64906;51.290;7.348;2024-02-04T16:54:53;32.75;;;17.02;;
76155;SDS011;64906;51.290;7.348;2024-02-04T16:57:20;33.13;;;18.80;;
76155;SDS011;64906;51.290;7.348;2024-02-04T16:59:45;30.85;;;17.45;;
76155;SDS011;64906;51.290;7.348;2024-02-04T17:02:12;33.08;;;18.23;;
76155;SDS011;64906;51.290;7.348;2024-02-04T17:04:39;33.15;;;17.88;;
76155;SDS011;64906;51.290;7.348;2024-02-04T17:07:07;31.38;;;17.83;;
76155;SDS011;64906;51.290;7.348;2024-02-04T17:09:33;32.70;;;17.90;;
76155;SDS011;64906;51.290;7.348;2024-02-04T17:11:58;33.55;;;16.38;;
76155;SDS011;64906;51.290;7.348;2024-02-04T17:14:24;32.55;;;18.40;;
76155;SDS011;64906;51.290;7.348;2024-02-04T17:22:16;31.33;;;17.05;;
76155;SDS011;64906;51.290;7.348;2024-02-04T17:24:52;31.35;;;16.90;;
76155;SDS011;64906;51.290;7.348;2024-02-04T17:27:20;31.23;;;16.70;;
76155;SDS011;64906;51.290;7.348;2024-02-04T17:29:47;32.95;;;17.52;;
76155;SDS011;64906;51.290;7.348;2024-02-04T17:32:21;33.22;;;17.88;;
76155;SDS011;64906;51.290;7.348;2024-02-04T17:34:50;29.42;;;16.77;;
76155;SDS011;64906;51.290;7.348;2024-02-04T17:37:17;28.88;;;16.55;;
76155;SDS011;64906;51.290;7.348;2024-02-04T17:39:43;32.03;;;17.08;;
76155;SDS011;64906;51.290;7.348;2024-02-04T17:42:22;32.85;;;17.60;;
76155;SDS011;64906;51.290;7.348;2024-02-04T17:44:53;31.95;;;17.35;;
76155;SDS011;64906;51.290;7.348;2024-02-04T17:47:22;30.48;;;16.83;;
76155;SDS011;64906;51.290;7.348;2024-02-04T17:49:52;29.55;;;16.45;;
76155;SDS011;64906;51.290;7.348;2024-02-04T17:52:21;32.30;;;16.38;;
76155;SDS011;64906;51.290;7.348;2024-02-04T17:54:50;30.05;;;16.75;;
76155;SDS011;64906;51.290;7.348;2024-02-04T17:57:16;29.38;;;16.92;;
76155;SDS011;64906;51.290;7.348;2024-02-04T17:59:42;33.60;;;18.08;;
76155;SDS011;64906;51.290;7.348;2024-02-04T18:02:09;29.90;;;16.67;;
76155;SDS011;64906;51.290;7.348;2024-02-04T18:04:36;31.00;;;16.40;;
76155;SDS011;64906;51.290;7.348;2024-02-04T18:07:02;28.75;;;16.90;;
76155;SDS011;64906;51.290;7.348;2024-02-04T18:09:28;30.17;;;16.73;;
76155;SDS011;64906;51.290;7.348;2024-02-04T18:11:54;31.48;;;16.83;;
76155;SDS011;64906;51.290;7.348;2024-02-04T18:14:20;30.45;;;16.60;;
76155;SDS011;64906;51.290;7.348;2024-02-04T18:16:46;31.13;;;16.67;;
76155;SDS011;64906;51.290;7.348;2024-02-04T18:19:12;31.13;;;17.25;;
76155;SDS011;64906;51.290;7.348;2024-02-04T18:21:37;28.80;;;16.15;;
76155;SDS011;64906;51.290;7.348;2024-02-04T18:24:03;36.28;;;20.08;;
76155;SDS011;64906;51.290;7.348;2024-02-04T18:26:31;33.55;;;18.55;;
76155;SDS011;64906;51.290;7.348;2024-02-04T18:28:58;38.17;;;18.77;;
76155;SDS011;64906;51.290;7.348;2024-02-04T18:31:25;34.67;;;18.13;;
76155;SDS011;64906;51.290;7.348;2024-02-04T18:33:57;35.35;;;18.33;;
76155;SDS011;64906;51.290;7.348;2024-02-04T18:36:24;35.53;;;18.15;;
76155;SDS011;64906;51.290;7.348;2024-02-04T18:38:56;37.22;;;19.55;;
76155;SDS011;64906;51.290;7.348;2024-02-04T18:41:23;34.95;;;18.45;;
76155;SDS011;64906;51.290;7.348;2024-02-04T18:43:49;35.13;;;19.23;;
76155;SDS011;64906;51.290;7.348;2024-02-04T18:46:16;35.78;;;19.23;;
76155;SDS011;64906;51.290;7.348;2024-02-04T18:48:43;33.55;;;18.25;;
76155;SDS011;64906;51.290;7.348;2024-02-04T18:51:15;39.72;;;20.60;;
76155;SDS011;64906;51.290;7.348;2024-02-04T18:53:42;35.53;;;18.02;;
76155;SDS011;64906;51.290;7.348;2024-02-04T18:56:11;33.58;;;18.35;;
76155;SDS011;64906;51.290;7.348;2024-02-04T18:58:41;36.38;;;19.00;;
76155;SDS011;64906;51.290;7.348;2024-02-04T19:01:18;35.05;;;19.35;;
76155;SDS011;64906;51.290;7.348;2024-02-04T19:03:48;34.15;;;18.00;;
76155;SDS011;64906;51.290;7.348;2024-02-04T19:06:26;33.33;;;18.90;;
76155;SDS011;64906;51.290;7.348;2024-02-04T19:09:06;34.80;;;18.33;;
76155;SDS011;64906;51.290;7.348;2024-02-04T19:11:41;34.50;;;18.30;;
76155;SDS011;64906;51.290;7.348;2024-02-04T19:14:18;34.17;;;18.20;;
76155;SDS011;64906;51.290;7.348;2024-02-04T19:16:48;32.78;;;16.95;;
76155;SDS011;64906;51.290;7.348;2024-02-04T19:19:17;34.60;;;17.83;;
76155;SDS011;64906;51.290;7.348;2024-02-04T19:22:07;37.10;;;17.33;;
76155;SDS011;64906;51.290;7.348;2024-02-04T19:24:33;30.65;;;17.05;;
76155;SDS011;64906;51.290;7.348;2024-02-04T19:26:58;34.90;;;17.75;;
76155;SDS011;64906;51.290;7.348;2024-02-04T19:29:32;34.60;;;18.35;;
76155;SDS011;64906;51.290;7.348;2024-02-04T19:31:58;31.50;;;17.15;;
76155;SDS011;64906;51.290;7.348;2024-02-04T19:34:24;27.83;;;16.45;;
76155;SDS011;64906;51.290;7.348;2024-02-04T19:36:49;32.90;;;18.65;;
76155;SDS011;64906;51.290;7.348;2024-02-04T19:39:14;30.83;;;17.30;;
76155;SDS011;64906;51.290;7.348;2024-02-04T19:41:40;31.15;;;17.15;;
76155;SDS011;64906;51.290;7.348;2024-02-04T19:44:06;30.80;;;17.20;;
76155;SDS011;64906;51.290;7.348;2024-02-04T19:46:31;30.88;;;17.20;;
76155;SDS011;64906;51.290;7.348;2024-02-04T19:48:56;29.77;;;17.27;;
76155;SDS011;64906;51.290;7.348;2024-02-04T19:51:25;30.38;;;16.52;;
76155;SDS011;64906;51.290;7.348;2024-02-04T19:53:50;32.33;;;17.50;;
76155;SDS011;64906;51.290;7.348;2024-02-04T19:56:16;31.80;;;16.85;;
76155;SDS011;64906;51.290;7.348;2024-02-04T19:58:41;31.60;;;16.88;;
76155;SDS011;64906;51.290;7.348;2024-02-04T20:01:07;30.98;;;16.80;;
76155;SDS011;64906;51.290;7.348;2024-02-04T20:03:33;35.42;;;17.65;;
76155;SDS011;64906;51.290;7.348;2024-02-04T20:05:58;28.05;;;16.15;;
76155;SDS011;64906;51.290;7.348;2024-02-04T20:08:24;30.27;;;16.55;;
76155;SDS011;64906;51.290;7.348;2024-02-04T20:10:50;40.58;;;18.40;;
76155;SDS011;64906;51.290;7.348;2024-02-04T20:13:15;57.78;;;21.02;;
76155;SDS011;64906;51.290;7.348;2024-02-04T20:15:40;45.30;;;19.10;;
76155;SDS011;64906;51.290;7.348;2024-02-04T20:18:06;44.88;;;19.58;;
76155;SDS011;64906;51.290;7.348;2024-02-04T20:20:32;42.47;;;19.83;;
76155;SDS011;64906;51.290;7.348;2024-02-04T20:22:59;44.55;;;19.25;;
76155;SDS011;64906;51.290;7.348;2024-02-04T20:25:25;38.15;;;18.55;;
76155;SDS011;64906;51.290;7.348;2024-02-04T20:27:53;37.92;;;17.88;;
76155;SDS011;64906;51.290;7.348;2024-02-04T20:30:19;38.08;;;19.00;;
76155;SDS011;64906;51.290;7.348;2024-02-04T20:32:44;41.35;;;19.67;;
76155;SDS011;64906;51.290;7.348;2024-02-04T20:35:10;41.30;;;19.13;;
76155;SDS011;64906;51.290;7.348;2024-02-04T20:37:36;43.22;;;19.42;;
76155;SDS011;64906;51.290;7.348;2024-02-04T20:40:03;38.92;;;19.20;;
76155;SDS011;64906;51.290;7.348;2024-02-04T20:42:29;39.97;;;18.35;;
76155;SDS011;64906;51.290;7.348;2024-02-04T20:44:55;42.53;;;19.42;;
76155;SDS011;64906;51.290;7.348;2024-02-04T20:47:21;40.08;;;18.40;;
76155;SDS011;64906;51.290;7.348;2024-02-04T20:49:47;36.10;;;19.17;;
76155;SDS011;64906;51.290;7.348;2024-02-04T20:52:13;34.28;;;18.40;;
76155;SDS011;64906;51.290;7.348;2024-02-04T20:54:44;39.60;;;19.13;;
76155;SDS011;64906;51.290;7.348;2024-02-04T20:57:10;40.45;;;19.88;;
76155;SDS011;64906;51.290;7.348;2024-02-04T20:59:36;36.45;;;17.70;;
76155;SDS011;64906;51.290;7.348;2024-02-04T21:02:02;41.70;;;18.92;;
76155;SDS011;64906;51.290;7.348;2024-02-04T21:04:27;36.08;;;18.45;;
76155;SDS011;64906;51.290;7.348;2024-02-04T21:06:53;38.70;;;18.38;;
76155;SDS011;64906;51.290;7.348;2024-02-04T21:09:20;38.63;;;19.60;;
76155;SDS011;64906;51.290;7.348;2024-02-04T21:11:46;37.33;;;17.85;;
76155;SDS011;64906;51.290;7.348;2024-02-04T21:14:11;36.30;;;18.23;;
76155;SDS011;64906;51.290;7.348;2024-02-04T21:16:37;35.20;;;18.60;;
76155;SDS011;64906;51.290;7.348;2024-02-04T21:19:02;37.00;;;19.05;;
76155;SDS011;64906;51.290;7.348;2024-02-04T21:21:30;35.17;;;17.83;;
76155;SDS011;64906;51.290;7.348;2024-02-04T21:24:08;37.03;;;17.88;;
76155;SDS011;64906;51.290;7.348;2024-02-04T21:33:20;37.42;;;16.83;;
76155;SDS011;64906;51.290;7.348;2024-02-04T21:35:45;38.20;;;18.58;;
76155;SDS011;64906;51.290;7.348;2024-02-04T21:38:18;35.85;;;17.35;;
76155;SDS011;64906;51.290;7.348;2024-02-04T21:40:44;32.97;;;16.65;;
76155;SDS011;64906;51.290;7.348;2024-02-04T21:43:10;35.97;;;16.90;;
76155;SDS011;64906;51.290;7.348;2024-02-04T21:45:40;33.63;;;17.30;;
76155;SDS011;64906;51.290;7.348;2024-02-04T21:48:07;30.48;;;17.60;;
76155;SDS011;64906;51.290;7.348;2024-02-04T21:50:33;33.08;;;17.30;;
76155;SDS011;64906;51.290;7.348;2024-02-04T21:53:01;35.58;;;16.58;;
76155;SDS011;64906;51.290;7.348;2024-02-04T21:55:30;34.65;;;17.42;;
76155;SDS011;64906;51.290;7.348;2024-02-04T21:57:56;33.30;;;17.38;;
76155;SDS011;64906;51.290;7.348;2024-02-04T22:00:22;31.95;;;16.35;;
76155;SDS011;64906;51.290;7.348;2024-02-04T22:02:52;34.92;;;17.10;;
76155;SDS011;64906;51.290;7.348;2024-02-04T22:05:26;33.50;;;16.77;;
76155;SDS011;64906;51.290;7.348;2024-02-04T22:08:05;35.53;;;16.15;;
76155;SDS011;64906;51.290;7.348;2024-02-04T22:10:31;36.28;;;16.83;;
76155;SDS011;64906;51.290;7.348;2024-02-04T22:12:56;27.30;;;15.60;;
76155;SDS011;64906;51.290;7.348;2024-02-04T22:15:22;34.50;;;16.33;;
76155;SDS011;64906;51.290;7.348;2024-02-04T22:17:47;30.50;;;15.32;;
76155;SDS011;64906;51.290;7.348;2024-02-04T22:20:13;31.65;;;16.42;;
76155;SDS011;64906;51.290;7.348;2024-02-04T22:22:41;32.60;;;16.20;;
76155;SDS011;64906;51.290;7.348;2024-02-04T22:25:07;32.40;;;16.27;;
76155;SDS011;64906;51.290;7.348;2024-02-04T22:27:32;31.50;;;16.73;;
76155;SDS011;64906;51.290;7.348;2024-02-04T22:29:59;32.97;;;15.68;;
76155;SDS011;64906;51.290;7.348;2024-02-04T22:32:24;33.15;;;16.00;;
76155;SDS011;64906;51.290;7.348;2024-02-04T22:34:50;30.60;;;15.63;;
76155;SDS011;64906;51.290;7.348;2024-02-04T22:37:16;30.90;;;15.60;;
76155;SDS011;64906;51.290;7.348;2024-02-04T22:39:41;28.83;;;16.17;;
76155;SDS011;64906;51.290;7.348;2024-02-04T22:42:06;31.83;;;15.77;;
76155;SDS011;64906;51.290;7.348;2024-02-04T22:44:32;29.17;;;15.20;;
76155;SDS011;64906;51.290;7.348;2024-02-04T22:49:55;27.80;;;14.43;;
76155;SDS011;64906;51.290;7.348;2024-02-04T22:52:21;27.50;;;14.50;;
76155;SDS011;64906;51.290;7.348;2024-02-04T22:54:46;27.33;;;13.87;;
76155;SDS011;64906;51.290;7.348;2024-02-04T22:57:11;30.10;;;15.00;;
76155;SDS011;64906;51.290;7.348;2024-02-04T22:59:37;29.67;;;14.60;;
76155;SDS011;64906;51.290;7.348;2024-02-04T23:02:02;30.70;;;15.00;;
76155;SDS011;64906;51.290;7.348;2024-02-04T23:04:28;28.67;;;14.48;;
76155;SDS011;64906;51.290;7.348;2024-02-04T23:06:53;30.00;;;15.18;;
76155;SDS011;64906;51.290;7.348;2024-02-04T23:09:19;29.30;;;14.63;;
76155;SDS011;64906;51.290;7.348;2024-02-04T23:11:44;24.93;;;13.50;;
76155;SDS011;64906;51.290;7.348;2024-02-04T23:14:09;31.10;;;14.60;;
76155;SDS011;64906;51.290;7.348;2024-02-04T23:16:34;26.97;;;14.43;;
76155;SDS011;64906;51.290;7.348;2024-02-04T23:19:00;25.93;;;13.03;;
76155;SDS011;64906;51.290;7.348;2024-02-04T23:21:26;30.63;;;14.30;;
76155;SDS011;64906;51.290;7.348;2024-02-04T23:23:51;29.13;;;14.03;;
76155;SDS011;64906;51.290;7.348;2024-02-04T23:26:16;27.77;;;13.93;;
76155;SDS011;64906;51.290;7.348;2024-02-04T23:28:42;26.87;;;13.60;;
76155;SDS011;64906;51.290;7.348;2024-02-04T23:31:07;29.17;;;14.43;;
76155;SDS011;64906;51.290;7.348;2024-02-04T23:33:32;29.27;;;12.57;;
76155;SDS011;64906;51.290;7.348;2024-02-04T23:35:58;27.17;;;13.83;;
76155;SDS011;64906;51.290;7.348;2024-02-04T23:38:23;29.53;;;14.87;;
76155;SDS011;64906;51.290;7.348;2024-02-04T23:40:49;26.38;;;13.50;;
76155;SDS011;64906;51.290;7.348;2024-02-04T23:43:14;27.25;;;13.13;;
76155;SDS011;64906;51.290;7.348;2024-02-04T23:45:40;24.37;;;14.00;;
76155;SDS011;64906;51.290;7.348;2024-02-04T23:48:05;28.73;;;13.65;;
76155;SDS011;64906;51.290;7.348;2024-02-04T23:50:31;24.98;;;13.73;;
76155;SDS011;64906;51.290;7.348;2024-02-04T23:52:56;24.97;;;13.20;;
76155;SDS011;64906;51.290;7.348;2024-02-04T23:55:21;29.97;;;12.97;;
76155;SDS011;64906;51.290;7.348;2024-02-04T23:57:47;26.48;;;13.52;;
